createdAt,value
2022-10-19T00:01:06.155Z,87.43
2022-10-19T00:03:39.555Z,87.29
2022-10-19T00:06:16.832Z,87.44
2022-10-19T00:08:48.855Z,87.57
2022-10-19T00:11:21.538Z,87.77
2022-10-19T00:13:58.910Z,87.99
2022-10-19T00:16:33.277Z,87.90
2022-10-19T00:19:08.228Z,87.96
2022-10-19T00:21:40.471Z,88.25
2022-10-19T00:24:12.679Z,88.30
2022-10-19T00:26:44.693Z,88.38
2022-10-19T00:29:17.432Z,88.36
2022-10-19T00:31:52.228Z,88.79
2022-10-19T00:34:24.254Z,88.77
2022-10-19T00:36:56.269Z,88.93
2022-10-19T00:39:28.357Z,89.06
2022-10-19T00:42:00.347Z,89.28
2022-10-19T00:45:04.357Z,89.54
2022-10-19T00:47:36.845Z,89.67
2022-10-19T00:50:10.544Z,89.72
2022-10-19T00:52:42.928Z,89.93
2022-10-19T00:55:15.187Z,90.00
2022-10-19T00:57:47.611Z,90.35
2022-10-19T01:00:20.456Z,90.37
2022-10-19T01:02:52.527Z,90.10
2022-10-19T01:05:25.091Z,90.01
2022-10-19T01:07:57.181Z,90.15
2022-10-19T01:10:37.960Z,89.98
2022-10-19T01:13:22.956Z,90.09
2022-10-19T01:16:00.898Z,90.31
2022-10-19T01:18:44.325Z,90.65
2022-10-19T01:21:30.033Z,91.01
2022-10-19T01:24:45.582Z,90.98
2022-10-19T01:27:41.086Z,91.08
2022-10-19T01:30:18.058Z,91.15
2022-10-19T01:33:03.603Z,91.08
2022-10-19T01:35:46.492Z,91.21
2022-10-19T01:38:28.431Z,91.21
2022-10-19T01:41:09.718Z,91.25
2022-10-19T01:43:48.549Z,91.19
2022-10-19T01:46:24.099Z,91.29
2022-10-19T01:49:01.190Z,91.40
2022-10-19T01:51:36.927Z,91.33
2022-10-19T01:54:14.243Z,91.45
2022-10-19T01:56:49.441Z,91.57
2022-10-19T01:59:23.726Z,91.50
2022-10-19T02:01:57.075Z,91.57
2022-10-19T02:04:32.208Z,91.60
2022-10-19T02:07:06.325Z,91.68
2022-10-19T02:09:38.432Z,91.61
2022-10-19T02:12:12.363Z,91.61
2022-10-19T02:14:48.618Z,91.61
2022-10-19T02:17:26.029Z,91.78
2022-10-19T02:19:59.025Z,91.71
2022-10-19T02:22:31.441Z,91.76
2022-10-19T02:25:03.719Z,91.76
2022-10-19T02:27:36.786Z,91.59
2022-10-19T02:30:12.441Z,91.66
2022-10-19T02:32:44.894Z,91.49
2022-10-19T02:35:20.330Z,91.37
2022-10-19T02:37:52.717Z,91.50
2022-10-19T02:40:25.101Z,91.47
2022-10-19T02:43:01.877Z,91.49
2022-10-19T02:45:38.427Z,91.68
2022-10-19T02:48:15.345Z,91.73
2022-10-19T02:50:48.784Z,91.59
2022-10-19T02:53:21.213Z,91.45
2022-10-19T02:55:53.666Z,91.38
2022-10-19T02:58:25.996Z,91.37
2022-10-19T03:00:58.015Z,91.35
2022-10-19T03:03:30.395Z,91.47
2022-10-19T03:06:02.356Z,91.52
2022-10-19T03:08:34.687Z,91.48
2022-10-19T03:11:08.147Z,91.44
2022-10-19T03:13:40.102Z,91.47
2022-10-19T03:16:14.453Z,91.50
2022-10-19T03:18:46.329Z,91.43
2022-10-19T03:21:18.887Z,91.45
2022-10-19T03:23:50.795Z,91.44
2022-10-19T03:26:22.712Z,91.57
2022-10-19T03:28:54.730Z,91.50
2022-10-19T03:31:27.273Z,91.62
2022-10-19T03:33:59.321Z,91.71
2022-10-19T03:36:33.554Z,91.72
2022-10-19T03:39:08.275Z,91.67
2022-10-19T03:41:41.055Z,91.47
2022-10-19T03:44:13.916Z,91.55
2022-10-19T03:46:46.401Z,91.51
2022-10-19T03:49:18.520Z,91.49
2022-10-19T03:51:50.981Z,91.36
2022-10-19T03:54:26.495Z,91.27
2022-10-19T03:56:59.633Z,91.06
2022-10-19T03:59:31.822Z,91.25
2022-10-19T04:02:05.602Z,91.25
2022-10-19T04:04:38.126Z,91.01
2022-10-19T04:07:10.127Z,90.89
2022-10-19T04:09:48.761Z,90.82
2022-10-19T04:12:20.836Z,91.01
2022-10-19T04:14:57.221Z,90.69
2022-10-19T04:17:29.942Z,90.79
2022-10-19T04:20:01.980Z,91.15
2022-10-19T04:22:34.074Z,90.85
2022-10-19T04:25:07.343Z,90.96
2022-10-19T04:27:39.417Z,91.20
2022-10-19T04:30:13.720Z,91.30
2022-10-19T04:32:45.773Z,91.23
2022-10-19T04:35:21.190Z,91.05
2022-10-19T04:37:53.179Z,90.73
2022-10-19T04:40:25.181Z,90.72
2022-10-19T04:42:57.088Z,90.71
2022-10-19T04:45:29.432Z,90.73
2022-10-19T04:48:03.490Z,90.71
2022-10-19T04:50:35.382Z,90.68
2022-10-19T04:53:07.853Z,90.50
2022-10-19T04:55:44.116Z,90.52
2022-10-19T04:58:16.176Z,90.46
2022-10-19T05:00:48.243Z,90.26
2022-10-19T05:03:20.545Z,90.40
2022-10-19T05:05:57.433Z,90.73
2022-10-19T05:08:29.412Z,90.73
2022-10-19T05:11:05.788Z,90.88
2022-10-19T05:13:38.534Z,90.90
2022-10-19T05:16:13.649Z,91.13
2022-10-19T05:18:47.706Z,91.24
2022-10-19T05:21:21.906Z,91.42
2022-10-19T05:23:56.197Z,91.39
2022-10-19T05:26:30.904Z,91.48
2022-10-19T05:29:04.637Z,91.64
2022-10-19T05:31:37.420Z,91.71
2022-10-19T05:34:09.608Z,91.70
2022-10-19T05:36:42.153Z,91.93
2022-10-19T05:39:16.391Z,92.12
2022-10-19T05:41:49.403Z,92.06
2022-10-19T05:44:24.116Z,92.16
2022-10-19T05:46:59.155Z,92.43
2022-10-19T05:49:31.474Z,92.45
2022-10-19T05:52:03.638Z,92.56
2022-10-19T05:54:36.177Z,92.78
2022-10-19T05:57:08.214Z,92.94
2022-10-19T05:59:40.876Z,92.97
2022-10-19T06:02:15.632Z,93.33
2022-10-19T06:04:47.740Z,93.45
2022-10-19T06:07:21.289Z,93.20
2022-10-19T06:09:53.317Z,93.47
2022-10-19T06:12:25.528Z,93.60
2022-10-19T06:14:57.489Z,93.71
2022-10-19T06:17:31.662Z,93.74
2022-10-19T06:20:04.262Z,93.98
2022-10-19T06:22:36.153Z,94.05
2022-10-19T06:25:09.524Z,94.07
2022-10-19T06:27:41.826Z,94.11
2022-10-19T06:30:14.655Z,94.20
2022-10-19T06:32:46.889Z,94.19
2022-10-19T06:35:19.408Z,94.22
2022-10-19T06:37:51.415Z,94.20
2022-10-19T06:40:23.451Z,94.27
2022-10-19T06:42:58.636Z,94.38
2022-10-19T06:45:35.602Z,94.28
2022-10-19T06:48:08.538Z,94.26
2022-10-19T06:50:40.545Z,94.37
2022-10-19T06:53:13.067Z,94.31
2022-10-19T06:56:00.413Z,94.20
2022-10-19T06:58:35.664Z,94.20
2022-10-19T07:01:09.567Z,94.18
2022-10-19T07:03:45.122Z,94.19
2022-10-19T07:06:17.240Z,94.29
2022-10-19T07:08:50.778Z,94.18
2022-10-19T07:11:23.822Z,94.25
2022-10-19T07:13:56.145Z,94.42
2022-10-19T07:16:28.123Z,94.22
2022-10-19T07:19:01.778Z,94.14
2022-10-19T07:21:34.020Z,94.12
2022-10-19T07:24:06.441Z,93.77
2022-10-19T07:26:38.603Z,93.85
2022-10-19T07:29:11.029Z,93.88
2022-10-19T07:31:43.085Z,93.75
2022-10-19T07:34:16.548Z,93.89
2022-10-19T07:36:49.076Z,93.82
2022-10-19T07:39:21.297Z,93.65
2022-10-19T07:41:53.393Z,93.74
2022-10-19T07:44:25.593Z,93.40
2022-10-19T07:46:58.100Z,93.50
2022-10-19T07:49:33.044Z,93.50
2022-10-19T07:52:05.873Z,93.21
2022-10-19T07:54:37.961Z,93.23
2022-10-19T07:57:12.147Z,93.18
2022-10-19T07:59:44.559Z,92.94
2022-10-19T08:02:18.706Z,92.68
2022-10-19T08:05:03.205Z,92.64
2022-10-19T08:07:38.899Z,92.63
2022-10-19T08:10:15.062Z,92.20
2022-10-19T08:12:47.041Z,91.70
2022-10-19T08:15:19.311Z,91.64
2022-10-19T08:17:51.421Z,92.10
2022-10-19T08:20:23.816Z,92.00
2022-10-19T08:22:58.833Z,91.60
2022-10-19T08:25:31.151Z,91.72
2022-10-19T08:28:03.320Z,91.86
2022-10-19T08:30:37.326Z,91.80
2022-10-19T08:33:12.565Z,91.68
2022-10-19T08:35:44.619Z,91.70
2022-10-19T08:38:16.611Z,91.51
2022-10-19T08:40:49.160Z,91.48
2022-10-19T08:43:31.221Z,91.24
2022-10-19T08:46:12.790Z,91.00
2022-10-19T08:52:05.139Z,90.04
2022-10-19T08:54:42.970Z,89.77
2022-10-19T08:57:26.325Z,90.01
2022-10-19T09:00:07.637Z,89.76
2022-10-19T09:02:55.070Z,88.85
2022-10-19T09:05:38.933Z,88.06
2022-10-19T09:08:17.556Z,87.73
2022-10-19T09:10:53.629Z,87.81
2022-10-19T09:13:41.763Z,87.30
2022-10-19T09:16:30.680Z,87.46
2022-10-19T09:19:03.001Z,86.63
2022-10-19T09:21:47.381Z,86.59
2022-10-19T09:24:31.410Z,86.37
2022-10-19T09:27:04.988Z,85.94
2022-10-19T09:29:43.531Z,85.98
2022-10-19T09:32:20.497Z,86.12
2022-10-19T09:34:55.391Z,85.07
2022-10-19T09:37:27.806Z,85.31
2022-10-19T09:39:59.810Z,84.68
2022-10-19T09:42:34.688Z,84.54
2022-10-19T09:45:18.708Z,85.01
2022-10-19T09:47:51.572Z,84.95
2022-10-19T09:50:25.318Z,85.13
2022-10-19T09:53:04.919Z,84.33
2022-10-19T09:55:40.580Z,83.54
2022-10-19T09:58:20.247Z,83.83
2022-10-19T10:00:55.081Z,82.26
2022-10-19T10:03:35.292Z,81.49
2022-10-19T10:06:09.455Z,80.86
2022-10-19T10:08:47.398Z,80.91
2022-10-19T10:11:28.118Z,81.82
2022-10-19T10:14:09.140Z,81.65
2022-10-19T10:16:42.102Z,81.33
2022-10-19T10:19:17.382Z,80.96
2022-10-19T10:21:55.862Z,80.16
2022-10-19T10:24:32.427Z,80.08
2022-10-19T10:27:07.274Z,78.96
2022-10-19T10:29:40.192Z,78.33
2022-10-19T10:32:19.551Z,78.84
2022-10-19T10:35:01.635Z,78.62
2022-10-19T10:37:40.397Z,78.52
2022-10-19T10:40:24.123Z,78.81
2022-10-19T10:42:59.302Z,78.88
2022-10-19T10:45:35.122Z,78.60
2022-10-19T10:48:44.025Z,77.88
2022-10-19T10:51:25.207Z,77.55
2022-10-19T10:54:09.631Z,76.95
2022-10-19T10:56:40.641Z,77.26
2022-10-19T10:59:18.880Z,77.14
2022-10-19T11:01:59.679Z,77.23
2022-10-19T11:04:31.946Z,77.60
2022-10-19T11:07:18.806Z,77.04
2022-10-19T11:09:53.334Z,77.24
2022-10-19T11:12:35.241Z,76.40
2022-10-19T11:15:12.153Z,76.10
2022-10-19T11:17:48.043Z,76.02
2022-10-19T11:20:17.361Z,75.42
2022-10-19T11:22:50.938Z,75.36
2022-10-19T11:25:36.420Z,75.58
2022-10-19T11:28:22.100Z,76.44
2022-10-19T11:31:00.982Z,77.15
2022-10-19T11:33:48.178Z,77.19
2022-10-19T11:36:37.680Z,77.21
2022-10-19T11:39:21.005Z,77.16
2022-10-19T11:42:00.648Z,76.94
2022-10-19T11:44:39.733Z,77.38
2022-10-19T11:47:21.249Z,76.62
2022-10-19T11:49:59.976Z,76.24
2022-10-19T11:52:39.445Z,76.30
2022-10-19T11:55:23.160Z,75.68
2022-10-19T11:57:59.292Z,74.05
2022-10-19T12:00:39.135Z,72.92
2022-10-19T12:03:17.098Z,72.36
2022-10-19T12:06:01.278Z,71.86
2022-10-19T12:08:45.897Z,71.60
2022-10-19T12:11:28.003Z,72.39
2022-10-19T12:14:00.607Z,72.23
2022-10-19T12:16:36.920Z,72.26
2022-10-19T12:19:09.366Z,72.73
2022-10-19T12:21:42.488Z,72.98
2022-10-19T12:24:17.892Z,72.81
2022-10-19T12:26:48.262Z,72.40
2022-10-19T12:29:22.881Z,71.99
2022-10-19T12:31:53.244Z,72.46
2022-10-19T12:34:36.695Z,72.03
2022-10-19T12:37:12.408Z,71.99
2022-10-19T12:39:49.266Z,72.63
2022-10-19T12:42:24.505Z,72.56
2022-10-19T12:45:09.984Z,72.36
2022-10-19T12:47:38.464Z,72.86
2022-10-19T12:50:08.045Z,72.88
2022-10-19T12:52:40.959Z,72.81
2022-10-19T12:55:26.382Z,72.22
2022-10-19T12:58:02.006Z,71.82
2022-10-19T13:00:33.799Z,71.76
2022-10-19T13:03:06.945Z,71.47
2022-10-19T13:05:36.353Z,71.80
2022-10-19T13:08:09.279Z,72.13
2022-10-19T13:10:40.818Z,72.40
2022-10-19T13:13:51.892Z,72.42
2022-10-19T13:16:55.194Z,72.71
2022-10-19T13:19:24.374Z,73.52
2022-10-19T13:22:24.499Z,73.85
2022-10-19T13:25:23.666Z,74.06
2022-10-19T13:27:53.907Z,74.26
2022-10-19T13:31:04.882Z,73.99
2022-10-19T13:33:51.132Z,74.15
2022-10-19T13:36:21.656Z,74.14
2022-10-19T13:39:03.149Z,73.86
2022-10-19T13:41:53.253Z,73.78
2022-10-19T13:44:33.181Z,73.75
2022-10-19T13:47:30.679Z,73.89
2022-10-19T13:50:25.747Z,74.02
2022-10-19T13:53:18.306Z,74.25
2022-10-19T13:56:20.700Z,74.76
2022-10-19T13:59:30.133Z,74.96
2022-10-19T14:02:30.579Z,75.06
2022-10-19T14:05:14.418Z,75.13
2022-10-19T14:07:50.497Z,75.47
2022-10-19T14:10:25.097Z,75.69
2022-10-19T14:13:03.029Z,75.88
2022-10-19T14:15:33.489Z,75.80
2022-10-19T14:18:03.748Z,76.19
2022-10-19T14:20:36.200Z,76.37
2022-10-19T14:23:20.182Z,76.04
2022-10-19T14:25:54.567Z,76.28
2022-10-19T14:28:24.704Z,76.24
2022-10-19T14:30:58.923Z,76.00
2022-10-19T14:33:28.955Z,75.70
2022-10-19T14:35:57.756Z,75.86
2022-10-19T14:38:31.639Z,75.80
2022-10-19T14:41:00.311Z,76.04
2022-10-19T14:43:33.136Z,76.14
2022-10-19T14:46:14.639Z,76.43
2022-10-19T14:48:45.102Z,76.40
2022-10-19T14:51:28.956Z,76.42
2022-10-19T14:54:03.669Z,76.49
2022-10-19T14:56:35.989Z,76.47
2022-10-19T14:59:15.205Z,76.75
2022-10-19T15:01:50.137Z,76.96
2022-10-19T15:04:20.765Z,76.99
2022-10-19T15:06:49.910Z,77.07
2022-10-19T15:09:37.010Z,77.24
2022-10-19T15:12:17.772Z,77.47
2022-10-19T15:14:47.393Z,77.51
2022-10-19T15:17:26.378Z,77.37
2022-10-19T15:19:57.871Z,77.79
2022-10-19T15:22:40.284Z,77.72
2022-10-19T15:25:34.751Z,78.01
2022-10-19T15:28:34.979Z,78.23
2022-10-19T15:31:12.880Z,78.44
2022-10-19T15:33:46.280Z,78.30
2022-10-19T15:36:16.900Z,78.47
2022-10-19T15:38:49.351Z,78.64
2022-10-19T15:41:28.110Z,78.48
2022-10-19T15:43:59.149Z,78.76
2022-10-19T15:46:31.329Z,78.85
2022-10-19T15:49:04.186Z,79.01
2022-10-19T15:51:42.620Z,79.16
2022-10-19T15:54:15.123Z,79.62
2022-10-19T15:56:47.933Z,79.83
2022-10-19T15:59:19.189Z,80.07
2022-10-19T16:01:53.726Z,80.58
2022-10-19T16:04:24.707Z,80.81
2022-10-19T16:06:53.212Z,81.08
2022-10-19T16:09:22.777Z,81.32
2022-10-19T16:11:56.003Z,81.52
2022-10-19T16:14:25.717Z,81.73
2022-10-19T16:16:55.633Z,82.02
2022-10-19T16:19:24.269Z,82.11
2022-10-19T16:21:53.261Z,82.23
2022-10-19T16:24:22.129Z,82.51
2022-10-19T16:26:50.719Z,82.78
2022-10-19T16:29:19.330Z,82.74
2022-10-19T16:31:48.537Z,83.07
2022-10-19T16:34:17.036Z,83.33
2022-10-19T16:36:46.032Z,83.33
2022-10-19T16:39:14.505Z,83.38
2022-10-19T16:41:44.386Z,83.64
2022-10-19T16:44:13.137Z,83.81
2022-10-19T16:46:42.109Z,84.04
2022-10-19T16:49:10.685Z,84.16
2022-10-19T16:51:40.571Z,84.51
2022-10-19T16:54:11.313Z,84.46
2022-10-19T16:56:45.022Z,84.77
2022-10-19T16:59:16.143Z,84.79
2022-10-19T17:01:48.652Z,84.78
2022-10-19T17:04:17.616Z,85.04
2022-10-19T17:06:49.070Z,84.94
2022-10-19T17:12:06.837Z,85.22
2022-10-19T17:14:36.032Z,85.26
2022-10-19T17:17:06.323Z,85.36
2022-10-19T17:19:38.689Z,85.40
2022-10-19T17:22:07.305Z,85.47
2022-10-19T17:24:36.862Z,85.57
2022-10-19T17:27:05.712Z,85.59
2022-10-19T17:29:34.395Z,85.77
2022-10-19T17:32:02.900Z,85.64
2022-10-19T17:34:31.557Z,85.78
2022-10-19T17:37:04.718Z,85.93
2022-10-19T17:39:33.785Z,85.99
2022-10-19T17:42:04.279Z,86.13
2022-10-19T17:44:32.972Z,86.29
2022-10-19T17:47:01.765Z,86.25
2022-10-19T17:49:30.542Z,86.45
2022-10-19T17:51:59.223Z,86.62
2022-10-19T17:54:27.885Z,86.81
2022-10-19T17:56:56.548Z,86.65
2022-10-19T17:59:34.731Z,86.81
2022-10-19T18:02:06.808Z,86.59
2022-10-19T18:07:10.586Z,86.60
2022-10-19T18:09:39.264Z,86.72
2022-10-19T18:12:12.586Z,86.84
2022-10-19T18:14:41.248Z,86.83
2022-10-19T18:17:10.040Z,86.86
2022-10-19T18:19:38.713Z,87.05
2022-10-19T18:22:07.381Z,86.89
2022-10-19T18:24:35.952Z,86.99
2022-10-19T18:27:04.554Z,86.88
2022-10-19T18:29:33.305Z,86.93
2022-10-19T18:32:02.012Z,87.12
2022-10-19T18:34:30.694Z,87.14
2022-10-19T18:36:59.265Z,87.16
2022-10-19T18:39:28.086Z,87.12
2022-10-19T18:41:56.703Z,87.12
2022-10-19T18:44:27.919Z,87.29
2022-10-19T18:46:57.831Z,87.07
2022-10-19T18:49:26.877Z,87.03
2022-10-19T18:51:56.078Z,87.02
2022-10-19T18:54:27.254Z,87.07
2022-10-19T18:56:55.959Z,87.14
2022-10-19T18:59:24.566Z,87.06
2022-10-19T19:01:53.964Z,87.22
2022-10-19T19:04:22.615Z,87.35
2022-10-19T19:06:52.594Z,87.15
2022-10-19T19:09:22.855Z,87.25
2022-10-19T19:11:53.523Z,87.22
2022-10-19T19:14:22.299Z,87.23
2022-10-19T19:16:54.076Z,87.34
2022-10-19T19:19:24.658Z,87.24
2022-10-19T19:21:53.224Z,87.22
2022-10-19T19:24:22.584Z,86.82
2022-10-19T19:26:53.233Z,86.74
2022-10-19T19:29:23.582Z,86.80
2022-10-19T19:31:53.302Z,86.72
2022-10-19T19:34:22.360Z,86.56
2022-10-19T19:36:51.117Z,86.67
2022-10-19T19:39:21.064Z,86.62
2022-10-19T19:41:50.522Z,86.41
2022-10-19T19:44:19.973Z,86.35
2022-10-19T19:46:48.559Z,86.23
2022-10-19T19:49:17.202Z,86.39
2022-10-19T19:51:45.752Z,86.33
2022-10-19T19:54:14.716Z,86.17
2022-10-19T19:56:43.278Z,86.11
2022-10-19T19:59:13.116Z,85.95
2022-10-19T20:01:42.353Z,85.96
2022-10-19T20:04:11.529Z,85.74
2022-10-19T20:06:40.602Z,85.57
2022-10-19T20:09:10.139Z,85.45
2022-10-19T20:11:42.311Z,85.59
2022-10-19T20:14:12.457Z,85.50
2022-10-19T20:16:41.564Z,85.43
2022-10-19T20:19:12.531Z,85.31
2022-10-19T20:21:42.424Z,85.38
2022-10-19T20:24:11.416Z,85.49
2022-10-19T20:26:40.002Z,85.30
2022-10-19T20:29:08.729Z,85.19
2022-10-19T20:31:40.144Z,85.19
2022-10-19T20:34:12.903Z,85.11
2022-10-19T20:36:41.878Z,85.31
2022-10-19T20:39:10.704Z,85.19
2022-10-19T20:41:39.457Z,85.03
2022-10-19T20:44:07.996Z,85.18
2022-10-19T20:46:36.762Z,84.97
2022-10-19T20:49:06.704Z,84.97
2022-10-19T20:51:36.450Z,84.74
2022-10-19T20:54:07.450Z,84.58
2022-10-19T20:56:37.806Z,84.44
2022-10-19T20:59:08.072Z,84.52
2022-10-19T21:01:38.589Z,84.31
2022-10-19T21:04:06.995Z,84.33
2022-10-19T21:06:39.067Z,84.40
2022-10-19T21:09:12.910Z,84.01
2022-10-19T21:11:43.129Z,83.80
2022-10-19T21:14:14.707Z,83.58
2022-10-19T21:16:44.365Z,83.71
2022-10-19T21:19:15.133Z,83.50
2022-10-19T21:21:46.692Z,83.42
2022-10-19T21:24:17.065Z,83.64
2022-10-19T21:26:45.998Z,83.74
2022-10-19T21:29:16.625Z,83.64
2022-10-19T21:31:48.658Z,83.48
2022-10-19T21:34:20.117Z,83.43
2022-10-19T21:36:51.117Z,83.37
2022-10-19T21:39:20.599Z,83.08
2022-10-19T21:41:52.068Z,83.02
2022-10-19T21:44:22.460Z,83.07
2022-10-19T21:46:51.171Z,82.88
2022-10-19T21:49:19.946Z,82.96
2022-10-19T21:51:51.094Z,83.31
2022-10-19T21:54:25.064Z,83.02
2022-10-19T21:56:56.014Z,82.84
2022-10-19T21:59:25.273Z,83.00
2022-10-19T22:01:55.598Z,82.60
2022-10-19T22:04:24.321Z,82.52
2022-10-19T22:06:53.026Z,82.84
2022-10-19T23:23:47.603Z,81.86
2022-10-19T23:26:18.559Z,81.78
2022-10-19T23:28:49.543Z,81.81
2022-10-19T23:31:20.137Z,81.80
2022-10-19T23:33:51.223Z,81.55
2022-10-19T23:36:22.572Z,81.45
2022-10-19T23:38:52.639Z,81.57
2022-10-19T23:41:22.054Z,81.52
2022-10-19T23:43:50.681Z,81.73
2022-10-19T23:46:19.257Z,81.46
2022-10-19T23:48:48.194Z,81.50
2022-10-19T23:51:18.645Z,81.56
2022-10-19T23:53:49.190Z,81.47
2022-10-19T23:56:18.318Z,81.47
2022-10-19T23:58:47.096Z,81.31
